Government of Jersey

Home Log in

Channel Islands Terminal Aerodrome Forecasts (TAFs)

Jersey Airport - EGJJ

EGJJ 200459Z 2006/2015 18010KT 9999 FEW004 BKN036 TEMPO 2006/2015 BKN011 BECMG 2010/2012 12005KT BECMG 2013/2015 06010KT=

Guernsey Airport - EGJB

EGJB 200459Z 2006/2015 19010KT 9999 FEW003 SCT045 TEMPO 2006/2015 BKN010 PROB30 TEMPO 2006/2009 8000 BKN003 BECMG 2009/2011 13005KT BECMG 2013/2015 06011KT=

Alderney Airport - EGJA

EGJA 191930Z 1919/2000 CNL=